Time;durP1;ratioP1;P1;durP2;ratioP2;P2;SDS_P1;SDS_P2;PMS_P1;PMS_P2;Temp;Humidity;BMP_temperature;BMP_pressure;BME280_temperature;BME280_humidity;BME280_pressure;Samples;Min_cycle;Max_cycle;Signal;HPM_P1;HPM_P2
2021/08/23 00:01:58;;;;;;;65.05;38.30;;;16.60;99.90;;;;;;5093512;28;20434;-68
2021/08/23 00:04:24;;;;;;;63.85;37.10;;;16.60;99.90;;;;;;5095042;28;20024;-68
2021/08/23 00:06:50;;;;;;;73.63;41.40;;;16.60;99.90;;;;;;5097148;28;20056;-68
2021/08/23 00:09:15;;;;;;;78.47;40.75;;;16.60;99.90;;;;;;5097088;28;20024;-68
2021/08/23 00:11:41;;;;;;;76.90;41.65;;;16.60;99.90;;;;;;5097058;28;20411;-68
2021/08/23 00:14:06;;;;;;;77.50;40.15;;;16.60;99.90;;;;;;5096757;28;20178;-68
2021/08/23 00:16:32;;;;;;;68.95;39.22;;;16.50;99.90;;;;;;5096917;28;20472;-69
2021/08/23 00:18:57;;;;;;;70.10;38.30;;;16.40;99.90;;;;;;5095793;28;20024;-68
2021/08/23 00:21:25;;;;;;;85.38;43.85;;;16.40;99.90;;;;;;5096878;28;20020;-68
2021/08/23 00:24:04;;;;;;;91.35;45.88;;;16.40;99.90;;;;;;5096269;28;20111;-68
2021/08/23 00:26:30;;;;;;;79.13;42.70;;;16.50;99.90;;;;;;5096697;28;20024;-68
2021/08/23 00:28:56;;;;;;;76.22;41.42;;;16.50;99.90;;;;;;5096514;28;20046;-68
2021/08/23 00:31:21;;;;;;;79.18;44.17;;;16.40;99.90;;;;;;5095537;28;20028;-68
2021/08/23 00:33:47;;;;;;;75.80;41.30;;;16.40;99.90;;;;;;5096337;28;20036;-68
2021/08/23 00:36:13;;;;;;;72.93;39.63;;;16.40;99.90;;;;;;5096547;28;20031;-68
2021/08/23 00:38:38;;;;;;;73.82;41.33;;;16.40;99.90;;;;;;5096555;28;20020;-68
2021/08/23 00:41:04;;;;;;;75.55;41.65;;;16.40;99.90;;;;;;5096245;28;20028;-68
2021/08/23 00:43:30;;;;;;;79.28;42.95;;;16.30;99.90;;;;;;5096451;28;20049;-68
2021/08/23 00:45:56;;;;;;;83.38;43.40;;;16.40;99.90;;;;;;5094615;28;20016;-68
2021/08/23 00:48:21;;;;;;;83.20;43.22;;;16.30;99.90;;;;;;5096051;28;20480;-68
2021/08/23 00:50:47;;;;;;;86.63;45.20;;;16.40;99.90;;;;;;5096338;28;20095;-68
2021/08/23 00:53:13;;;;;;;85.07;45.08;;;16.40;99.90;;;;;;5094574;28;20035;-68
2021/08/23 00:55:38;;;;;;;82.18;44.33;;;16.40;99.90;;;;;;5095946;28;20036;-68
2021/08/23 00:58:04;;;;;;;93.75;44.97;;;16.50;99.90;;;;;;5096085;28;20465;-68
2021/08/23 01:00:32;;;;;;;84.65;45.55;;;16.50;99.90;;;;;;5096101;28;20031;-68
2021/08/23 01:03:03;;;;;;;89.03;47.20;;;16.50;99.90;;;;;;5095802;28;20027;-68
2021/08/23 01:05:31;;;;;;;108.22;51.33;;;16.60;99.90;;;;;;5095971;28;20012;-68
2021/08/23 01:08:01;;;;;;;107.53;53.30;;;16.70;99.90;;;;;;5094549;28;20409;-68
2021/08/23 01:10:33;;;;;;;113.57;56.35;;;16.70;99.90;;;;;;5095632;28;20374;-68
2021/08/23 01:13:00;;;;;;;127.82;59.05;;;16.70;99.90;;;;;;5095836;28;20024;-68
2021/08/23 01:15:25;;;;;;;123.82;57.55;;;16.70;99.90;;;;;;5095811;28;20047;-68
2021/08/23 01:17:51;;;;;;;130.90;62.20;;;16.70;99.90;;;;;;5095691;28;20350;-68
2021/08/23 01:20:18;;;;;;;126.28;61.40;;;16.60;99.90;;;;;;5095469;28;20024;-68
2021/08/23 01:22:47;;;;;;;118.68;58.30;;;16.60;99.90;;;;;;5095688;28;20020;-68
2021/08/23 01:25:15;;;;;;;112.88;53.80;;;16.50;99.90;;;;;;5095696;28;20031;-68
2021/08/23 01:27:49;;;;;;;107.65;55.88;;;16.50;99.90;;;;;;5095332;28;20477;-69
2021/08/23 01:30:16;;;;;;;112.90;56.35;;;16.50;99.90;;;;;;5095326;28;20028;-68
2021/08/23 01:32:42;;;;;;;115.05;55.65;;;16.50;99.90;;;;;;5095480;28;20020;-68
2021/08/23 01:35:08;;;;;;;118.22;60.95;;;16.50;99.90;;;;;;5095430;28;20039;-68
2021/08/23 01:37:36;;;;;;;118.13;59.58;;;16.50;99.90;;;;;;5095349;28;20028;-68
2021/08/23 01:40:04;;;;;;;121.50;62.55;;;16.50;99.90;;;;;;5093940;28;20016;-68
2021/08/23 01:42:31;;;;;;;121.88;61.22;;;16.60;99.90;;;;;;5095313;28;20027;-68
2021/08/23 01:44:56;;;;;;;121.82;60.95;;;16.60;99.90;;;;;;5095281;28;20077;-68
2021/08/23 01:47:22;;;;;;;126.22;62.10;;;16.60;99.90;;;;;;5095223;28;20028;-68
2021/08/23 01:49:47;;;;;;;115.30;60.90;;;16.60;99.90;;;;;;5095223;28;20032;-68
2021/08/23 01:52:13;;;;;;;122.95;61.08;;;16.60;99.90;;;;;;5095128;28;20457;-68
2021/08/23 01:54:41;;;;;;;114.82;63.13;;;16.60;99.90;;;;;;5095040;28;20024;-68
2021/08/23 01:57:07;;;;;;;127.93;65.20;;;16.60;99.90;;;;;;5092954;28;20406;-68
2021/08/23 01:59:32;;;;;;;125.10;65.38;;;16.50;99.90;;;;;;5093488;28;20030;-68
2021/08/23 02:01:58;;;;;;;121.55;62.17;;;16.60;99.90;;;;;;5077039;28;20016;-68
2021/08/23 02:04:23;;;;;;;124.75;62.05;;;16.60;99.90;;;;;;5093757;28;20074;-72
2021/08/23 02:06:49;;;;;;;119.85;61.30;;;16.50;99.90;;;;;;5094843;28;20369;-72
2021/08/23 02:09:15;;;;;;;120.65;61.92;;;16.60;99.90;;;;;;5094829;28;20039;-72
2021/08/23 02:11:40;;;;;;;118.53;62.45;;;16.60;99.90;;;;;;5094402;28;20441;-72
2021/08/23 02:14:06;;;;;;;119.47;62.78;;;16.60;99.90;;;;;;5094426;28;20101;-72
2021/08/23 02:16:31;;;;;;;120.68;60.45;;;16.60;99.90;;;;;;5094618;28;20028;-72
2021/08/23 02:18:57;;;;;;;115.57;60.42;;;16.50;99.90;;;;;;5094661;28;20366;-72
2021/08/23 02:21:23;;;;;;;105.95;56.90;;;16.60;99.90;;;;;;5094618;28;20024;-72
2021/08/23 02:23:51;;;;;;;102.47;54.45;;;16.50;99.90;;;;;;5094009;28;20032;-72
2021/08/23 02:26:16;;;;;;;98.13;53.53;;;16.50;99.90;;;;;;5094251;28;20099;-72
2021/08/23 02:28:42;;;;;;;104.80;54.90;;;16.50;99.90;;;;;;5094119;28;20083;-72
2021/08/23 02:31:07;;;;;;;113.47;55.33;;;16.50;99.90;;;;;;5094173;28;20078;-72
2021/08/23 02:33:33;;;;;;;115.00;56.60;;;16.40;99.90;;;;;;5094166;28;20024;-72
2021/08/23 02:35:58;;;;;;;113.47;57.08;;;16.40;99.90;;;;;;5093131;28;20020;-73
2021/08/23 02:38:24;;;;;;;108.90;56.35;;;16.40;99.90;;;;;;5093955;28;20089;-72
2021/08/23 02:40:49;;;;;;;112.72;57.63;;;16.40;99.90;;;;;;5092497;28;20024;-72
2021/08/23 02:43:15;;;;;;;111.55;55.47;;;16.40;99.90;;;;;;5092481;28;20016;-72
2021/08/23 02:45:40;;;;;;;117.63;57.22;;;16.40;99.90;;;;;;5094237;28;20052;-72
2021/08/23 02:48:06;;;;;;;113.72;58.30;;;16.40;99.90;;;;;;5093937;28;20020;-72
2021/08/23 02:50:32;;;;;;;115.43;56.40;;;16.40;99.90;;;;;;5109689;28;20043;-73
2021/08/23 02:52:57;;;;;;;103.60;53.60;;;16.40;99.90;;;;;;5093879;28;20103;-72
2021/08/23 02:55:23;;;;;;;104.70;55.00;;;16.40;99.90;;;;;;5094164;28;20051;-72
2021/08/23 02:57:48;;;;;;;101.63;52.88;;;16.40;99.90;;;;;;5092119;28;20058;-72
2021/08/23 03:00:14;;;;;;;105.20;54.33;;;16.40;99.90;;;;;;5093564;28;20039;-72
2021/08/23 03:02:40;;;;;;;111.68;54.67;;;16.40;99.90;;;;;;5094053;28;20020;-72
2021/08/23 03:05:05;;;;;;;114.68;52.72;;;16.40;99.90;;;;;;5093764;28;20059;-72
2021/08/23 03:07:31;;;;;;;99.97;53.97;;;16.40;99.90;;;;;;5094023;28;20106;-72
2021/08/23 03:09:57;;;;;;;105.75;51.22;;;16.40;99.90;;;;;;5094039;28;20042;-72
2021/08/23 03:12:23;;;;;;;103.00;52.15;;;16.40;99.90;;;;;;5094038;28;20028;-72
2021/08/23 03:14:48;;;;;;;93.07;48.60;;;16.30;99.90;;;;;;5093679;28;20021;-72
2021/08/23 03:17:14;;;;;;;91.03;49.00;;;16.30;99.90;;;;;;5093610;28;20093;-72
2021/08/23 03:19:39;;;;;;;97.63;48.25;;;16.30;99.90;;;;;;5093924;28;20059;-72
2021/08/23 03:22:05;;;;;;;98.82;48.78;;;16.30;99.90;;;;;;5093636;28;20024;-72
2021/08/23 03:24:31;;;;;;;105.03;48.55;;;16.30;99.90;;;;;;5093613;28;20028;-72
2021/08/23 03:26:57;;;;;;;96.32;46.72;;;16.40;99.90;;;;;;5092389;28;20038;-72
2021/08/23 03:29:22;;;;;;;82.20;44.78;;;16.40;99.90;;;;;;5092397;28;20020;-72
2021/08/23 03:31:48;;;;;;;88.60;45.97;;;16.30;99.90;;;;;;5093530;28;20392;-72
2021/08/23 03:34:14;;;;;;;84.03;44.13;;;16.40;99.90;;;;;;5093805;28;20035;-72
2021/08/23 03:36:41;;;;;;;88.85;45.80;;;16.40;99.90;;;;;;5093726;28;20028;-72
2021/08/23 03:39:07;;;;;;;91.15;46.00;;;16.40;99.90;;;;;;5093929;28;20111;-72
2021/08/23 03:41:34;;;;;;;87.15;45.33;;;16.40;99.90;;;;;;5097411;28;20016;-73
2021/08/23 03:44:00;;;;;;;82.55;44.25;;;16.40;99.90;;;;;;5097048;28;20023;-72
2021/08/23 03:46:27;;;;;;;84.05;42.65;;;16.40;99.90;;;;;;5097584;28;20020;-72
2021/08/23 03:48:54;;;;;;;86.32;43.85;;;16.40;99.90;;;;;;5095717;28;20031;-72
2021/08/23 03:51:19;;;;;;;76.45;42.72;;;16.40;99.90;;;;;;5097189;28;20024;-72
2021/08/23 03:53:45;;;;;;;80.82;41.70;;;16.40;99.90;;;;;;5097177;28;20118;-72
2021/08/23 03:56:10;;;;;;;73.47;40.17;;;16.40;99.90;;;;;;5096756;28;20080;-72
2021/08/23 03:58:36;;;;;;;71.70;40.70;;;16.40;99.90;;;;;;5097090;28;20095;-72
2021/08/23 04:01:01;;;;;;;74.90;40.65;;;16.40;99.90;;;;;;5097273;28;20030;-73
2021/08/23 04:03:29;;;;;;;77.50;39.92;;;16.40;99.90;;;;;;5095828;28;20036;-72
2021/08/23 04:05:55;;;;;;;80.45;41.33;;;16.40;99.90;;;;;;5096643;28;20024;-72
2021/08/23 04:08:20;;;;;;;78.78;40.92;;;16.40;99.90;;;;;;5095937;28;20081;-72
2021/08/23 04:10:47;;;;;;;73.50;40.10;;;16.40;99.90;;;;;;5096843;28;20024;-72
2021/08/23 04:13:13;;;;;;;72.90;38.45;;;16.40;99.90;;;;;;5097081;28;20024;-72
2021/08/23 04:15:38;;;;;;;71.13;38.70;;;16.40;99.90;;;;;;5096760;28;20351;-73
2021/08/23 04:18:04;;;;;;;75.35;39.42;;;16.40;99.90;;;;;;5096873;28;20365;-72
2021/08/23 04:20:29;;;;;;;76.10;40.22;;;16.40;99.90;;;;;;5096366;28;20076;-72
2021/08/23 04:22:55;;;;;;;75.32;41.25;;;16.40;99.90;;;;;;5096875;28;20032;-73
2021/08/23 04:25:20;;;;;;;78.35;40.92;;;16.30;99.90;;;;;;5096811;28;20095;-72
2021/08/23 04:27:46;;;;;;;76.43;40.20;;;16.40;99.90;;;;;;5094951;28;20403;-72
2021/08/23 04:30:12;;;;;;;77.00;40.58;;;16.30;99.90;;;;;;5095257;28;20032;-72
2021/08/23 04:32:37;;;;;;;71.40;39.35;;;16.30;99.90;;;;;;5096708;28;20033;-72
2021/08/23 04:35:03;;;;;;;71.00;38.33;;;16.40;99.90;;;;;;5095195;28;20024;-72
2021/08/23 04:37:29;;;;;;;74.25;39.13;;;16.30;99.90;;;;;;5096211;28;20036;-72
2021/08/23 04:39:54;;;;;;;85.70;40.55;;;16.30;99.90;;;;;;5096565;28;20020;-72
2021/08/23 04:42:20;;;;;;;76.13;39.10;;;16.30;99.90;;;;;;5095343;28;20016;-72
2021/08/23 04:44:45;;;;;;;72.18;38.25;;;16.30;99.90;;;;;;5096452;28;20048;-71
2021/08/23 04:47:11;;;;;;;72.55;37.85;;;16.30;99.90;;;;;;5096410;28;20028;-72
2021/08/23 04:49:37;;;;;;;71.45;38.17;;;16.30;99.90;;;;;;5094206;28;20023;-72
2021/08/23 04:52:03;;;;;;;74.00;38.40;;;16.30;99.90;;;;;;5095161;28;20511;-72
2021/08/23 04:54:28;;;;;;;70.50;36.50;;;16.30;99.90;;;;;;5096278;28;20031;-72
2021/08/23 04:56:54;;;;;;;70.47;37.95;;;16.30;99.90;;;;;;5095504;28;20044;-73
2021/08/23 04:59:19;;;;;;;73.57;38.90;;;16.30;99.90;;;;;;5095162;28;20028;-72
2021/08/23 05:01:45;;;;;;;71.68;36.72;;;16.40;99.90;;;;;;5095595;28;20028;-73
2021/08/23 05:04:11;;;;;;;70.55;37.80;;;16.40;99.90;;;;;;5096109;28;20099;-72
2021/08/23 05:06:36;;;;;;;67.85;36.60;;;16.40;99.90;;;;;;5094881;28;20457;-72
2021/08/23 05:09:02;;;;;;;64.63;37.60;;;16.30;99.90;;;;;;5095941;28;20487;-72
2021/08/23 05:11:29;;;;;;;69.35;36.90;;;16.40;99.90;;;;;;5095403;28;20032;-72
2021/08/23 05:13:54;;;;;;;65.68;35.75;;;16.40;99.90;;;;;;5095874;28;20082;-73
2021/08/23 05:16:20;;;;;;;63.20;36.20;;;16.40;99.90;;;;;;5095508;28;20032;-72
2021/08/23 05:18:45;;;;;;;64.25;37.20;;;16.40;99.90;;;;;;5093980;28;20445;-72
2021/08/23 05:21:11;;;;;;;66.95;36.10;;;16.50;99.90;;;;;;5095772;28;20020;-72
2021/08/23 05:23:36;;;;;;;60.90;34.97;;;16.50;99.90;;;;;;5095714;28;20051;-72
2021/08/23 05:26:06;;;;;;;55.35;32.83;;;16.50;99.90;;;;;;5095366;28;20024;-72
2021/08/23 05:28:32;;;;;;;50.15;30.85;;;16.40;99.90;;;;;;5093804;28;20050;-72
2021/08/23 05:30:58;;;;;;;49.83;29.48;;;16.40;99.90;;;;;;5095556;28;20536;-72
2021/08/23 05:33:23;;;;;;;49.47;31.33;;;16.30;99.90;;;;;;5095291;28;20024;-72
2021/08/23 05:35:49;;;;;;;48.72;30.02;;;16.30;99.90;;;;;;5095469;28;20043;-72
2021/08/23 05:38:14;;;;;;;47.05;29.38;;;16.30;99.90;;;;;;5095397;28;20457;-72
2021/08/23 05:40:40;;;;;;;54.55;29.27;;;16.30;99.90;;;;;;5095352;28;20374;-72
2021/08/23 05:43:05;;;;;;;49.25;30.42;;;16.30;99.90;;;;;;5095344;28;20024;-72
2021/08/23 05:45:31;;;;;;;48.78;30.30;;;16.30;99.90;;;;;;5094978;28;20023;-72
2021/08/23 05:47:57;;;;;;;45.42;30.35;;;16.30;99.90;;;;;;5095217;28;20032;-72
2021/08/23 05:50:23;;;;;;;50.03;30.50;;;16.20;99.90;;;;;;5094925;28;20028;-72
2021/08/23 05:52:50;;;;;;;54.88;31.98;;;16.20;99.90;;;;;;5094910;28;20384;-72
2021/08/23 05:55:15;;;;;;;50.92;32.22;;;16.30;99.90;;;;;;5093178;28;20043;-72
2021/08/23 05:57:41;;;;;;;51.20;32.08;;;16.30;99.90;;;;;;5094210;28;20052;-72
2021/08/23 06:00:08;;;;;;;57.55;32.50;;;16.30;99.90;;;;;;5095020;28;20042;-72
2021/08/23 06:02:34;;;;;;;51.65;31.63;;;16.30;99.90;;;;;;5094254;28;20020;-72
2021/08/23 06:05:00;;;;;;;52.38;31.33;;;16.40;99.90;;;;;;5093059;28;20020;-72
2021/08/23 06:07:25;;;;;;;44.83;30.40;;;16.40;99.90;;;;;;5093524;28;20031;-72
2021/08/23 06:09:51;;;;;;;41.60;28.00;;;16.40;99.90;;;;;;5074947;28;20035;-72
2021/08/23 06:12:16;;;;;;;38.95;26.92;;;16.40;99.90;;;;;;5094280;28;20020;-72
2021/08/23 06:14:42;;;;;;;41.38;26.40;;;16.30;99.90;;;;;;5093069;28;20032;-72
2021/08/23 06:17:08;;;;;;;46.28;26.40;;;16.30;99.90;;;;;;5091165;28;20058;-72
2021/08/23 06:19:34;;;;;;;35.00;23.52;;;16.30;99.90;;;;;;5092355;28;20028;-72
2021/08/23 06:22:00;;;;;;;37.60;25.27;;;16.30;99.90;;;;;;5094007;28;20035;-72
2021/08/23 06:24:26;;;;;;;35.45;24.90;;;16.30;99.90;;;;;;5092908;28;20020;-72
2021/08/23 06:26:51;;;;;;;32.58;23.95;;;16.30;99.90;;;;;;5094090;28;20386;-71
2021/08/23 06:29:17;;;;;;;30.52;22.90;;;16.20;99.90;;;;;;5092418;28;20469;-72
2021/08/23 06:31:42;;;;;;;31.25;22.88;;;16.20;99.90;;;;;;5093418;28;20051;-72
2021/08/23 06:34:08;;;;;;;30.33;22.50;;;16.30;99.90;;;;;;5094044;28;20098;-73
2021/08/23 06:36:34;;;;;;;32.95;22.52;;;16.30;99.90;;;;;;5093066;28;20020;-72
2021/08/23 06:39:00;;;;;;;30.08;22.98;;;16.30;99.90;;;;;;5092917;28;20016;-72
2021/08/23 06:41:26;;;;;;;33.90;23.77;;;16.30;99.90;;;;;;5093262;28;20028;-72
2021/08/23 06:43:51;;;;;;;29.85;21.90;;;16.30;99.90;;;;;;5093624;28;20024;-72
2021/08/23 06:46:17;;;;;;;34.63;23.23;;;16.30;99.90;;;;;;5093446;28;20437;-73
2021/08/23 06:48:44;;;;;;;34.03;23.40;;;16.40;99.90;;;;;;5092011;28;20024;-72
2021/08/23 06:51:09;;;;;;;29.65;23.00;;;16.50;99.90;;;;;;5092446;28;20106;-65
2021/08/23 06:53:35;;;;;;;29.73;22.13;;;16.60;99.90;;;;;;5091959;28;20518;-66
2021/08/23 06:56:00;;;;;;;33.03;22.63;;;16.80;99.90;;;;;;5091774;28;20127;-66
2021/08/23 06:58:26;;;;;;;28.42;22.02;;;16.90;99.90;;;;;;5093334;28;20024;-67
2021/08/23 07:00:52;;;;;;;27.35;20.98;;;16.90;99.90;;;;;;5109504;28;20020;-66
2021/08/23 07:03:17;;;;;;;30.25;22.42;;;16.80;99.90;;;;;;5092841;28;20073;-66
2021/08/23 07:05:43;;;;;;;27.50;21.80;;;16.90;99.90;;;;;;5092785;28;20392;-66
2021/08/23 07:08:13;;;;;;;28.13;20.48;;;16.90;99.90;;;;;;5092413;28;20111;-65
2021/08/23 07:10:39;;;;;;;29.23;21.45;;;16.80;99.90;;;;;;5055907;28;20024;-65
2021/08/23 07:13:04;;;;;;;28.48;21.70;;;16.70;99.90;;;;;;5076522;28;20031;-67
2021/08/23 07:15:30;;;;;;;28.23;20.33;;;16.70;99.90;;;;;;5097166;28;20405;-67
2021/08/23 07:17:56;;;;;;;27.60;21.13;;;16.70;99.90;;;;;;5097203;28;20020;-66
2021/08/23 07:20:21;;;;;;;26.88;20.80;;;16.70;99.90;;;;;;5097247;28;20338;-67
2021/08/23 07:22:47;;;;;;;27.63;20.25;;;16.90;99.90;;;;;;5096398;28;20032;-68
2021/08/23 07:25:12;;;;;;;26.80;19.02;;;17.40;99.90;;;;;;5096160;28;20051;-69
2021/08/23 07:27:38;;;;;;;21.73;17.20;;;17.40;99.90;;;;;;5096169;28;20032;-69
2021/08/23 07:30:04;;;;;;;20.95;17.90;;;17.60;99.90;;;;;;5096565;28;20028;-66
2021/08/23 07:32:31;;;;;;;25.50;18.88;;;17.60;99.90;;;;;;5096950;28;20028;-67
2021/08/23 07:38:22;;;;;;;30.23;22.17;;;17.20;99.90;;;;;;5097072;28;20040;-67
2021/08/23 07:40:47;;;;;;;29.33;23.17;;;17.10;99.90;;;;;;5097422;28;20035;-66
2021/08/23 07:43:13;;;;;;;28.05;23.63;;;16.90;99.90;;;;;;5097112;28;20103;-66
2021/08/23 07:45:38;;;;;;;33.03;24.52;;;16.90;99.90;;;;;;5097407;28;20055;-66
2021/08/23 07:48:04;;;;;;;35.58;25.13;;;16.90;99.90;;;;;;5097140;28;20027;-66
2021/08/23 07:50:30;;;;;;;34.22;25.90;;;16.90;99.90;;;;;;5097263;28;20023;-66
2021/08/23 07:52:56;;;;;;;32.53;24.67;;;16.90;99.90;;;;;;5097354;28;20042;-67
2021/08/23 07:55:21;;;;;;;32.92;25.05;;;16.90;99.90;;;;;;5097355;28;20107;-67
2021/08/23 07:57:49;;;;;;;33.88;26.33;;;17.00;99.90;;;;;;5096560;28;20044;-67
2021/08/23 08:00:17;;;;;;;40.67;26.55;;;17.10;99.90;;;;;;5097098;28;20017;-66
2021/08/23 08:02:43;;;;;;;32.95;26.10;;;17.10;99.90;;;;;;5096306;28;20026;-67
2021/08/23 08:05:09;;;;;;;32.17;25.75;;;17.00;99.90;;;;;;5095649;28;20028;-67
2021/08/23 08:07:35;;;;;;;38.45;25.80;;;17.10;99.90;;;;;;5096720;28;20042;-67
2021/08/23 08:10:01;;;;;;;35.70;26.17;;;17.10;99.90;;;;;;5096879;28;20456;-66
2021/08/23 08:12:26;;;;;;;37.33;28.30;;;17.10;99.90;;;;;;5096876;28;20035;-66
2021/08/23 08:14:54;;;;;;;37.35;27.73;;;17.00;99.90;;;;;;5096610;28;20031;-72
2021/08/23 08:17:20;;;;;;;40.25;29.00;;;16.90;99.90;;;;;;5096268;28;20500;-72
2021/08/23 08:19:46;;;;;;;41.47;30.00;;;16.80;99.90;;;;;;5096824;28;20023;-72
2021/08/23 08:22:13;;;;;;;41.33;29.20;;;16.70;99.90;;;;;;5096815;28;20020;-73
2021/08/23 08:24:38;;;;;;;41.92;30.27;;;16.70;99.90;;;;;;5094603;28;20354;-72
2021/08/23 08:27:04;;;;;;;41.13;29.70;;;16.80;99.90;;;;;;5096727;28;20042;-73
2021/08/23 08:29:30;;;;;;;41.05;30.25;;;16.90;99.90;;;;;;5096909;28;20030;-73
2021/08/23 08:31:55;;;;;;;36.47;28.10;;;17.20;99.90;;;;;;5096546;28;20027;-71
2021/08/23 08:34:21;;;;;;;36.33;28.05;;;17.40;99.90;;;;;;5095935;28;20025;-72
2021/08/23 08:36:47;;;;;;;40.92;29.85;;;17.50;99.90;;;;;;5093681;28;20043;-71
2021/08/23 08:39:13;;;;;;;40.58;30.15;;;17.50;99.90;;;;;;5094601;28;20024;-71
2021/08/23 08:41:38;;;;;;;39.42;30.05;;;17.30;99.90;;;;;;5095365;28;20040;-70
2021/08/23 08:44:04;;;;;;;38.47;28.98;;;17.20;99.90;;;;;;5077233;28;20085;-71
2021/08/23 08:46:34;;;;;;;35.97;27.70;;;16.90;99.90;;;;;;5095835;28;20102;-71
2021/08/23 08:49:01;;;;;;;34.83;26.60;;;17.00;99.90;;;;;;5095956;28;20020;-72
2021/08/23 08:51:27;;;;;;;31.52;24.45;;;17.00;99.90;;;;;;5094196;28;20020;-72
2021/08/23 08:53:52;;;;;;;29.05;22.80;;;17.30;99.90;;;;;;5095206;28;20046;-72
2021/08/23 08:56:18;;;;;;;27.50;22.23;;;17.60;99.90;;;;;;5094565;28;20040;-72
2021/08/23 08:58:43;;;;;;;28.45;22.92;;;18.10;99.90;;;;;;5095724;28;20024;-72
2021/08/23 09:01:11;;;;;;;27.00;22.60;;;18.70;99.90;;;;;;5095747;28;20074;-72
2021/08/23 09:03:44;;;;;;;25.38;22.50;;;19.30;99.90;;;;;;5094260;28;20020;-72
2021/08/23 09:06:10;;;;;;;25.58;22.40;;;19.70;99.90;;;;;;5094399;28;20397;-72
2021/08/23 09:08:46;;;;;;;28.35;22.92;;;19.90;99.90;;;;;;5095698;28;20032;-72
2021/08/23 09:11:14;;;;;;;25.85;22.08;;;19.50;99.90;;;;;;5078056;28;20016;-73
2021/08/23 09:13:41;;;;;;;28.52;22.00;;;19.50;99.90;;;;;;5094975;28;20065;-73
2021/08/23 09:16:07;;;;;;;27.35;24.42;;;19.10;99.90;;;;;;5093713;28;20028;-73
2021/08/23 09:18:34;;;;;;;28.63;24.67;;;18.70;99.90;;;;;;5095432;28;20500;-72
2021/08/23 09:21:03;;;;;;;29.30;24.63;;;18.80;99.90;;;;;;5095312;28;20108;-72
2021/08/23 09:23:47;;;;;;;31.13;25.63;;;18.80;99.90;;;;;;5094448;28;20485;-72
2021/08/23 09:26:16;;;;;;;30.45;25.45;;;18.80;99.90;;;;;;5074906;28;20044;-72
2021/08/23 09:28:53;;;;;;;30.58;25.65;;;18.50;99.90;;;;;;5084064;28;20035;-72
2021/08/23 09:31:25;;;;;;;26.65;23.60;;;18.60;99.90;;;;;;5093892;28;20016;-72
2021/08/23 09:33:51;;;;;;;29.55;24.75;;;18.80;99.90;;;;;;5100279;28;20104;-73
2021/08/23 09:36:18;;;;;;;29.27;24.95;;;18.60;99.90;;;;;;5114897;28;20057;-71
2021/08/23 09:38:54;;;;;;;33.92;27.23;;;18.40;99.90;;;;;;5115439;28;20102;-72
2021/08/23 09:41:23;;;;;;;30.52;26.45;;;18.40;99.90;;;;;;5102014;28;20016;-72
2021/08/23 09:44:03;;;;;;;32.10;26.35;;;18.40;99.90;;;;;;5095055;28;20048;-72
2021/08/23 09:46:32;;;;;;;25.50;22.15;;;18.70;99.90;;;;;;5094093;28;20054;-72
2021/08/23 09:49:02;;;;;;;32.97;22.85;;;18.40;99.90;;;;;;5093096;28;20038;-72
2021/08/23 09:51:35;;;;;;;30.60;22.95;;;18.60;99.90;;;;;;5093591;28;20031;-72
2021/08/23 09:54:07;;;;;;;28.70;22.52;;;18.90;99.90;;;;;;5094822;28;20051;-72
2021/08/23 09:56:35;;;;;;;23.52;20.98;;;19.00;99.90;;;;;;5094340;28;20365;-71
2021/08/23 09:59:03;;;;;;;28.75;23.25;;;19.10;99.90;;;;;;5094734;28;20027;-72
2021/08/23 10:01:31;;;;;;;26.92;20.58;;;19.10;99.90;;;;;;5094849;28;20424;-71
2021/08/23 10:04:01;;;;;;;27.00;20.80;;;19.40;99.90;;;;;;5094321;28;20482;-71
2021/08/23 10:06:27;;;;;;;24.15;19.92;;;19.30;99.90;;;;;;5094409;28;20027;-72
2021/08/23 10:08:53;;;;;;;23.33;18.17;;;19.60;99.90;;;;;;5094248;28;20122;-71
2021/08/23 10:11:19;;;;;;;20.20;17.98;;;19.30;99.90;;;;;;5094303;28;20024;-72
2021/08/23 10:13:45;;;;;;;20.17;17.27;;;19.40;99.90;;;;;;5094459;28;20024;-72
2021/08/23 10:16:11;;;;;;;21.70;18.15;;;19.30;99.90;;;;;;5094210;28;20099;-69
2021/08/23 10:18:38;;;;;;;24.63;19.10;;;19.30;99.90;;;;;;5074351;28;20036;-69
2021/08/23 10:21:07;;;;;;;25.15;19.25;;;19.40;99.90;;;;;;5094052;28;20377;-69
2021/08/23 10:23:35;;;;;;;21.88;19.50;;;19.40;99.90;;;;;;5092906;28;20381;-71
2021/08/23 10:26:01;;;;;;;20.70;17.35;;;19.40;99.90;;;;;;5093291;28;20065;-70
2021/08/23 10:28:36;;;;;;;22.42;18.70;;;19.20;99.90;;;;;;5093297;28;20500;-70
2021/08/23 10:31:06;;;;;;;22.25;18.13;;;19.20;99.90;;;;;;5092405;28;20047;-70
2021/08/23 10:33:36;;;;;;;26.27;17.85;;;19.10;99.90;;;;;;5072008;28;20028;-71
2021/08/23 10:36:04;;;;;;;21.08;16.02;;;19.20;99.90;;;;;;5092265;28;20036;-70
2021/08/23 10:38:30;;;;;;;18.88;15.05;;;19.60;99.90;;;;;;5093471;28;20111;-69
2021/08/23 10:41:14;;;;;;;20.48;14.90;;;19.80;99.90;;;;;;5092475;28;20421;-69
2021/08/23 10:43:58;;;;;;;16.60;14.60;;;20.00;99.90;;;;;;5075223;28;20040;-68
2021/08/23 10:46:30;;;;;;;;;;;20.20;99.90;;;;;;5092530;28;20400;-68
2021/08/23 10:48:59;;;;;;;19.65;15.07;;;20.50;99.90;;;;;;5092251;28;19911;-68
2021/08/23 10:51:30;;;;;;;18.63;14.63;;;20.70;99.90;;;;;;5093188;28;20421;-69
2021/08/23 10:53:56;;;;;;;16.50;14.55;;;20.50;99.90;;;;;;5093806;28;20032;-69
2021/08/23 10:56:23;;;;;;;16.10;14.30;;;20.50;99.90;;;;;;5093398;28;20393;-69
2021/08/23 10:58:54;;;;;;;15.88;13.48;;;20.90;99.90;;;;;;5093731;28;20090;-68
2021/08/23 11:01:22;;;;;;;16.85;13.63;;;21.10;99.90;;;;;;5093046;28;20028;-68
2021/08/23 11:04:06;;;;;;;14.82;12.93;;;20.70;99.90;;;;;;5093698;28;20050;-69
2021/08/23 11:06:32;;;;;;;13.20;11.75;;;20.80;99.90;;;;;;5092839;28;20020;-72
2021/08/23 11:09:13;;;;;;;15.00;11.32;;;20.60;99.90;;;;;;5092922;28;20458;-69
2021/08/23 11:11:40;;;;;;;16.63;10.52;;;21.00;99.90;;;;;;5092636;28;20032;-69
2021/08/23 11:14:21;;;;;;;10.07;9.05;;;21.30;99.90;;;;;;5093703;28;20016;-69
2021/08/23 11:16:51;;;;;;;12.50;8.85;;;22.00;99.90;;;;;;5090457;28;20421;-69
2021/08/23 11:19:19;;;;;;;14.13;9.38;;;22.30;99.90;;;;;;5093966;28;20043;-69
2021/08/23 11:21:47;;;;;;;12.40;9.48;;;21.70;99.90;;;;;;5091104;28;20111;-69
2021/08/23 11:24:17;;;;;;;10.18;9.18;;;21.70;99.90;;;;;;5093464;28;20027;-69
2021/08/23 11:27:00;;;;;;;12.23;9.25;;;21.60;99.90;;;;;;5092785;28;20462;-69
2021/08/23 11:29:26;;;;;;;12.07;9.23;;;20.90;99.90;;;;;;5093040;28;20571;-69
2021/08/23 11:32:00;;;;;;;10.88;8.55;;;20.40;99.90;;;;;;5092567;28;20028;-69
2021/08/23 11:34:27;;;;;;;12.85;8.85;;;20.50;99.90;;;;;;5091942;28;20020;-69
2021/08/23 11:36:59;;;;;;;9.63;8.68;;;20.70;99.90;;;;;;5092650;28;20024;-70
2021/08/23 11:39:28;;;;;;;10.20;8.40;;;20.90;99.90;;;;;;5093173;28;20020;-69
2021/08/23 11:41:58;;;;;;;9.38;8.48;;;21.00;99.90;;;;;;5093438;28;20481;-67
2021/08/23 11:44:25;;;;;;;10.70;8.27;;;21.00;99.90;;;;;;5092744;28;20026;-68
2021/08/23 11:47:02;;;;;;;9.68;8.73;;;20.90;99.90;;;;;;5093625;28;20107;-69
2021/08/23 11:49:31;;;;;;;13.38;8.57;;;20.80;99.90;;;;;;5072339;28;20029;-68
2021/08/23 11:51:58;;;;;;;10.43;8.65;;;20.60;99.90;;;;;;5080192;28;20365;-69
2021/08/23 11:54:24;;;;;;;13.25;9.35;;;20.70;99.90;;;;;;5093401;28;20406;-68
2021/08/23 11:56:49;;;;;;;11.82;9.13;;;20.90;99.90;;;;;;5093144;28;20074;-68
2021/08/23 11:59:15;;;;;;;11.50;9.40;;;20.50;99.90;;;;;;5093359;28;20058;-68
2021/08/23 12:01:41;;;;;;;12.18;9.35;;;20.50;99.90;;;;;;5097030;28;20047;-68
2021/08/23 12:04:06;;;;;;;11.13;9.23;;;20.20;99.90;;;;;;5096133;28;20027;-68
2021/08/23 12:06:33;;;;;;;9.93;8.93;;;20.20;99.90;;;;;;5096383;28;20030;-69
2021/08/23 12:09:00;;;;;;;11.20;9.27;;;20.30;99.90;;;;;;5096692;28;20069;-69
2021/08/23 12:11:25;;;;;;;10.70;9.18;;;20.50;99.90;;;;;;5078081;28;20027;-68
2021/08/23 12:13:51;;;;;;;17.65;9.55;;;20.40;99.90;;;;;;5094400;28;20020;-68
2021/08/23 12:16:20;;;;;;;11.57;9.15;;;20.40;99.90;;;;;;5096060;28;20017;-69
2021/08/23 12:18:48;;;;;;;9.82;8.75;;;20.40;99.90;;;;;;5096238;28;20028;-69
2021/08/23 12:21:29;;;;;;;9.98;8.20;;;20.50;99.90;;;;;;5095266;28;20178;-69
2021/08/23 12:26:56;;;;;;;11.40;8.65;;;20.60;99.90;;;;;;5111248;27;20834;-69
2021/08/23 12:29:25;;;;;;;11.63;8.63;;;20.40;99.90;;;;;;5110421;28;20020;-69
2021/08/23 12:31:54;;;;;;;13.07;8.60;;;20.50;99.90;;;;;;5110441;28;20422;-69